Time;durP1;ratioP1;P1;durP2;ratioP2;P2;SDS_P1;SDS_P2;PMS_P1;PMS_P2;Temp;Humidity;BMP_temperature;BMP_pressure;BME280_temperature;BME280_humidity;BME280_pressure;Samples;Min_cycle;Max_cycle;Signal;HPM_P1;HPM_P2
2021/08/15 00:02:09;;;;;;;;;25.25;22.25;;;;;22.97;45.10;101436.88;5018471;28;47945;-90
2021/08/15 00:04:35;;;;;;;;;32.00;28.00;;;;;22.91;45.32;101429.41;5018507;28;45460;-92
2021/08/15 00:07:00;;;;;;;;;28.75;26.50;;;;;22.88;46.02;101432.28;5016393;28;45404;-91
2021/08/15 00:09:28;;;;;;;;;31.25;27.50;;;;;22.86;45.78;101431.56;5019050;28;45270;-91
2021/08/15 00:11:53;;;;;;;;;25.25;24.25;;;;;22.83;45.65;101430.00;5039845;28;45737;-91
2021/08/15 00:14:19;;;;;;;;;29.75;26.25;;;;;22.78;45.78;101422.38;5028471;28;45364;-91
2021/08/15 00:16:44;;;;;;;;;27.50;23.50;;;;;22.75;45.60;101413.81;5001442;28;45503;-91
2021/08/15 00:19:10;;;;;;;;;22.75;21.00;;;;;22.76;46.06;101416.34;5039883;28;45490;-92
2021/08/15 00:21:37;;;;;;;;;24.50;22.00;;;;;22.70;46.88;101416.81;5022007;28;46892;-92
2021/08/15 00:24:04;;;;;;;;;22.50;21.50;;;;;22.67;46.12;101409.09;5021738;28;45421;-92
2021/08/15 00:26:30;;;;;;;;;18.50;16.00;;;;;22.69;46.71;101415.97;5008054;28;45298;-91
2021/08/15 00:28:56;;;;;;;;;14.25;13.50;;;;;22.65;46.50;101406.59;5019969;28;45285;-91
2021/08/15 00:31:21;;;;;;;;;18.25;15.00;;;;;22.62;46.56;101405.94;5019596;28;45507;-90
2021/08/15 00:33:47;;;;;;;;;18.50;15.75;;;;;22.58;46.87;101405.34;5001739;28;45691;-91
2021/08/15 00:36:12;;;;;;;;;17.00;14.75;;;;;22.55;46.72;101409.06;5019632;28;45423;-92
2021/08/15 00:38:38;;;;;;;;;18.00;17.00;;;;;22.53;46.79;101405.72;5000548;28;45575;-91
2021/08/15 00:41:03;;;;;;;;;14.50;13.00;;;;;22.48;46.36;101399.00;5001976;28;47017;-91
2021/08/15 00:43:31;;;;;;;;;15.00;14.50;;;;;22.44;46.84;101395.75;5019589;28;44749;-92
2021/08/15 00:45:57;;;;;;;;;13.00;12.50;;;;;22.46;47.03;101404.47;5019969;28;45286;-92
2021/08/15 00:48:23;;;;;;;;;14.75;12.25;;;;;22.43;47.09;101402.88;5024844;28;45467;-91
2021/08/15 00:50:48;;;;;;;;;15.00;14.75;;;;;22.38;47.08;101402.38;5023814;28;47162;-92
2021/08/15 00:53:14;;;;;;;;;15.50;13.25;;;;;22.37;47.19;101406.00;5019452;28;45339;-91
2021/08/15 00:55:39;;;;;;;;;19.75;14.00;;;;;22.34;47.39;101386.81;5001385;28;45344;-92
2021/08/15 00:58:08;;;;;;;;;16.75;16.25;;;;;22.32;47.82;101394.91;5019699;28;45257;-91
2021/08/15 01:00:35;;;;;;;;;17.50;15.00;;;;;22.28;47.63;101399.56;5018586;28;45419;-91
2021/08/15 01:03:00;;;;;;;;;17.00;14.50;;;;;22.23;48.06;101395.59;5019239;28;45306;-91
2021/08/15 01:05:27;;;;;;;;;18.00;16.25;;;;;22.22;48.43;101396.56;5001466;28;45304;-91
2021/08/15 01:07:52;;;;;;;;;19.50;17.50;;;;;22.17;47.98;101391.59;5001582;28;45520;-91
2021/08/15 01:10:18;;;;;;;;;17.00;15.00;;;;;22.09;48.55;101392.19;5007805;28;47055;-91
2021/08/15 01:12:45;;;;;;;;;21.75;20.00;;;;;22.09;48.55;101396.63;5038928;28;45485;-91
2021/08/15 01:15:11;;;;;;;;;24.75;20.75;;;;;22.01;48.72;101390.09;5019407;28;45314;-92
2021/08/15 01:17:37;;;;;;;;;21.00;20.75;;;;;22.03;48.83;101392.63;5001499;28;45355;-91
2021/08/15 01:20:03;;;;;;;;;26.75;23.00;;;;;22.01;48.83;101384.81;5000239;28;47460;-92
2021/08/15 01:22:37;;;;;;;;;26.00;22.75;;;;;21.95;49.21;101385.28;5018865;28;45557;-91
2021/08/15 01:25:05;;;;;;;;;30.00;25.25;;;;;21.94;48.88;101374.78;5001292;28;45511;-91
2021/08/15 01:27:36;;;;;;;;;25.75;22.50;;;;;21.94;49.24;101382.72;5000860;28;45767;-91
2021/08/15 01:30:02;;;;;;;;;22.00;20.75;;;;;21.89;49.28;101373.31;5018384;28;45445;-91
2021/08/15 01:32:27;;;;;;;;;23.50;21.50;;;;;21.88;49.48;101371.63;5000718;28;45544;-91
2021/08/15 01:34:55;;;;;;;;;23.25;21.50;;;;;21.86;49.33;101375.34;5000855;28;45776;-91
2021/08/15 01:37:22;;;;;;;;;27.00;25.75;;;;;21.85;49.33;101371.84;5019174;28;45298;-91
2021/08/15 01:39:47;;;;;;;;;26.75;24.75;;;;;21.82;49.18;101371.22;5018340;28;45447;-91
2021/08/15 01:42:12;;;;;;;;;27.00;21.50;;;;;21.73;49.38;101356.88;4999976;28;46869;-91
2021/08/15 01:44:38;;;;;;;;;23.50;21.50;;;;;21.72;49.50;101360.47;5000849;28;45763;-91
2021/08/15 01:47:03;;;;;;;;;29.75;22.75;;;;;21.71;49.50;101358.78;5001287;28;45347;-92
2021/08/15 01:49:29;;;;;;;;;28.75;24.75;;;;;21.67;49.68;101360.78;5018686;28;45414;-92
2021/08/15 01:51:54;;;;;;;;;24.75;23.50;;;;;21.64;49.57;101358.34;5018217;28;45309;-90
2021/08/15 01:54:19;;;;;;;;;27.50;24.00;;;;;21.58;49.90;101357.00;5022940;28;45274;-92
2021/08/15 01:56:45;;;;;;;;;27.50;23.00;;;;;21.58;49.85;101358.81;5018534;28;44897;-92
2021/08/15 01:59:10;;;;;;;;;25.75;22.00;;;;;21.52;50.02;101348.66;5000552;28;46470;-91
2021/08/15 02:01:36;;;;;;;;;25.75;23.75;;;;;21.51;50.06;101354.94;5000153;28;45381;-91
2021/08/15 02:04:01;;;;;;;;;25.75;24.00;;;;;21.45;50.07;101345.63;5000108;28;45357;-91
2021/08/15 02:06:27;;;;;;;;;24.50;22.75;;;;;21.45;50.34;101350.91;5018296;28;45404;-91
2021/08/15 02:08:52;;;;;;;;;21.75;20.75;;;;;21.41;50.40;101354.72;5000385;28;47037;-91
2021/08/15 02:11:19;;;;;;;;;25.50;22.50;;;;;21.38;50.77;101354.97;5000403;28;45309;-91
2021/08/15 02:13:45;;;;;;;;;26.00;22.25;;;;;21.31;50.52;101346.63;5000184;28;45456;-91
2021/08/15 02:16:11;;;;;;;;;25.00;23.50;;;;;21.29;51.03;101341.44;5020288;28;45370;-91
2021/08/15 02:18:36;;;;;;;;;23.75;20.75;;;;;21.26;51.12;101336.38;5020164;28;47462;-91
2021/08/15 02:21:02;;;;;;;;;25.50;22.75;;;;;21.23;50.92;101348.03;5020231;28;45390;-91
2021/08/15 02:23:27;;;;;;;;;25.00;22.25;;;;;21.21;50.82;101347.28;5038202;28;45337;-91
2021/08/15 02:25:53;;;;;;;;;24.00;20.25;;;;;21.21;50.85;101346.44;5016167;28;45335;-91
2021/08/15 02:28:19;;;;;;;;;26.75;23.25;;;;;21.14;51.21;101330.16;5020013;28;46147;-92
2021/08/15 02:30:44;;;;;;;;;22.50;21.00;;;;;21.14;51.53;101339.88;5038018;28;45451;-92
2021/08/15 02:33:10;;;;;;;;;25.75;21.00;;;;;21.10;51.29;101326.03;5019626;28;44787;-91
2021/08/15 02:35:35;;;;;;;;;19.25;19.25;;;;;21.05;51.34;101320.22;5015778;28;45402;-91
2021/08/15 02:38:00;;;;;;;;;19.50;18.50;;;;;21.07;51.80;101326.25;5037588;28;45261;-91
2021/08/15 02:40:26;;;;;;;;;19.25;18.75;;;;;21.04;51.67;101329.09;5029053;28;45443;-91
2021/08/15 02:42:53;;;;;;;;;26.00;22.50;;;;;21.02;51.89;101329.22;5020133;28;45263;-91
2021/08/15 02:45:20;;;;;;;;;21.50;21.00;;;;;21.01;51.92;101324.06;5019894;28;45283;-91
2021/08/15 02:47:46;;;;;;;;;18.50;17.50;;;;;20.94;51.88;101321.84;4996142;28;47862;-92
2021/08/15 02:50:13;;;;;;;;;24.50;21.50;;;;;20.94;51.75;101321.00;4996513;28;45247;-91
2021/08/15 02:52:39;;;;;;;;;23.50;20.75;;;;;20.90;51.90;101309.78;4980436;28;45307;-91
2021/08/15 02:55:06;;;;;;;;;25.00;20.50;;;;;20.87;52.25;101315.28;4997063;28;45573;-91
2021/08/15 02:57:31;;;;;;;;;14.00;14.00;;;;;20.82;52.36;101310.28;5009547;28;45771;-91
2021/08/15 02:59:56;;;;;;;;;23.50;19.25;;;;;20.83;52.07;101313.81;5016213;28;45712;-91
2021/08/15 03:02:22;;;;;;;;;23.25;21.00;;;;;20.79;52.38;101304.38;4999521;28;44982;-91
2021/08/15 03:04:47;;;;;;;;;16.00;15.00;;;;;20.77;52.20;101304.50;4999917;28;45429;-91
2021/08/15 03:07:15;;;;;;;;;23.75;20.00;;;;;20.76;52.11;101299.28;5000141;28;48514;-92
2021/08/15 03:09:41;;;;;;;;;23.25;20.50;;;;;20.74;51.72;101288.81;5019369;28;45736;-92
2021/08/15 03:12:07;;;;;;;;;20.00;17.25;;;;;20.73;52.38;101291.59;5019669;28;45370;-92
2021/08/15 03:14:32;;;;;;;;;21.50;15.75;;;;;20.70;52.51;101290.00;5037314;28;45471;-91
2021/08/15 03:16:58;;;;;;;;;17.50;16.50;;;;;20.65;52.25;101284.19;5019225;28;48224;-92
2021/08/15 03:19:23;;;;;;;;;18.00;14.50;;;;;20.64;52.44;101286.00;5004198;28;45574;-91
2021/08/15 03:21:48;;;;;;;;;14.00;12.50;;;;;20.65;52.52;101297.41;4997545;28;45282;-90
2021/08/15 03:24:14;;;;;;;;;15.33;15.00;;;;;20.62;52.77;101285.25;4980094;28;45639;-91
2021/08/15 03:26:46;;;;;;;;;15.00;14.00;;;;;20.59;52.69;101287.28;4979763;28;47425;-91
2021/08/15 03:29:15;;;;;;;;;17.25;15.25;;;;;20.58;52.58;101285.56;5009722;28;45406;-91
2021/08/15 03:31:43;;;;;;;;;15.75;14.75;;;;;20.58;52.72;101289.06;5017283;28;45219;-91
2021/08/15 03:34:09;;;;;;;;;18.50;16.50;;;;;20.54;53.03;101291.09;5017248;28;45416;-91
2021/08/15 03:36:34;;;;;;;;;17.75;15.50;;;;;20.52;52.94;101286.84;5016835;28;45432;-91
2021/08/15 03:39:00;;;;;;;;;17.50;15.00;;;;;20.49;52.82;101276.47;4995044;28;44976;-91
2021/08/15 03:41:26;;;;;;;;;16.50;13.25;;;;;20.48;53.04;101283.59;5014788;28;45769;-91
2021/08/15 03:43:51;;;;;;;;;14.00;13.50;;;;;20.43;52.89;101275.94;5017254;28;45361;-91
2021/08/15 03:46:17;;;;;;;;;12.75;11.50;;;;;20.42;53.75;101287.47;5019640;28;46317;-91
2021/08/15 03:48:42;;;;;;;;;17.00;13.00;;;;;20.39;53.04;101279.78;5019025;28;45598;-90
2021/08/15 03:51:07;;;;;;;;;12.25;11.50;;;;;20.36;53.30;101271.22;5004752;28;44912;-89
2021/08/15 03:53:33;;;;;;;;;14.50;13.75;;;;;20.35;53.33;101280.06;5000939;28;45270;-91
2021/08/15 03:55:58;;;;;;;;;15.25;14.25;;;;;20.33;53.29;101274.94;5000387;28;45389;-91
2021/08/15 03:58:24;;;;;;;;;10.25;10.25;;;;;20.31;53.58;101273.34;4999176;28;46081;-91
2021/08/15 04:00:49;;;;;;;;;14.00;14.00;;;;;20.26;53.33;101274.50;5001125;28;45392;-91
2021/08/15 04:03:14;;;;;;;;;16.00;11.33;;;;;20.25;53.21;101275.44;5020667;28;45271;-90
2021/08/15 04:05:40;;;;;;;;;15.75;14.25;;;;;20.25;53.61;101269.31;5017401;28;46197;-91
2021/08/15 04:08:07;;;;;;;;;14.00;13.33;;;;;20.23;53.81;101268.56;5005664;28;45564;-91
2021/08/15 04:10:34;;;;;;;;;15.75;15.75;;;;;20.20;53.54;101267.00;4999142;28;45440;-92
2021/08/15 04:12:59;;;;;;;;;17.50;14.00;;;;;20.19;53.88;101272.38;4998887;28;45788;-91
2021/08/15 04:15:25;;;;;;;;;15.50;13.00;;;;;20.13;54.06;101276.25;4999899;28;45407;-91
2021/08/15 04:17:50;;;;;;;;;20.25;15.50;;;;;20.11;53.66;101272.91;4998537;28;45300;-92
2021/08/15 04:20:16;;;;;;;;;15.50;13.50;;;;;20.10;53.99;101277.34;4998986;28;45406;-91
2021/08/15 04:22:41;;;;;;;;;15.25;13.25;;;;;20.07;54.00;101274.03;4998724;28;45142;-91
2021/08/15 04:25:07;;;;;;;;;15.25;12.25;;;;;20.05;53.98;101270.69;4999879;28;45621;-91
2021/08/15 04:27:33;;;;;;;;;20.00;14.50;;;;;20.04;53.89;101277.75;5000114;28;45298;-91
2021/08/15 04:29:59;;;;;;;;;14.25;14.25;;;;;20.01;54.28;101267.41;4999995;28;45388;-91
2021/08/15 04:32:24;;;;;;;;;16.75;14.50;;;;;19.99;54.21;101267.50;4998365;28;45422;-91
2021/08/15 04:34:49;;;;;;;;;14.50;14.25;;;;;19.97;54.32;101257.97;5018717;28;45444;-92
2021/08/15 04:37:17;;;;;;;;;17.25;14.50;;;;;19.96;54.50;101257.16;5007141;28;45290;-91
2021/08/15 04:39:46;;;;;;;;;11.00;11.00;;;;;19.97;54.77;101260.63;5010741;28;44821;-91
2021/08/15 04:42:12;;;;;;;;;13.75;12.75;;;;;19.94;54.63;101250.25;5019802;28;45357;-91
2021/08/15 04:44:38;;;;;;;;;14.50;14.50;;;;;19.93;54.55;101256.47;5018939;28;45193;-91
2021/08/15 04:47:03;;;;;;;;;19.00;14.75;;;;;19.89;54.81;101248.75;5019628;28;45458;-91
2021/08/15 04:49:29;;;;;;;;;15.75;12.75;;;;;19.92;54.52;101260.06;5001708;28;45283;-91
2021/08/15 04:51:55;;;;;;;;;14.25;13.00;;;;;19.89;54.60;101253.19;5019791;28;45437;-91
2021/08/15 04:54:26;;;;;;;;;12.00;12.00;;;;;19.87;54.50;101255.09;5004592;28;47364;-91
2021/08/15 04:56:51;;;;;;;;;18.50;12.25;;;;;19.88;54.92;101255.00;5010814;28;45362;-91
2021/08/15 04:59:17;;;;;;;;;11.67;11.00;;;;;19.85;54.80;101254.34;5019320;28;45384;-91
2021/08/15 05:01:42;;;;;;;;;11.00;11.00;;;;;19.86;54.71;101256.88;5019631;28;45324;-91
2021/08/15 05:04:08;;;;;;;;;15.00;13.25;;;;;19.84;55.21;101258.78;5001178;28;47528;-91
2021/08/15 05:06:33;;;;;;;;;15.00;13.50;;;;;19.83;55.21;101254.47;5028148;28;45380;-91
2021/08/15 05:08:59;;;;;;;;;12.00;12.00;;;;;19.83;55.11;101257.09;5001528;28;45432;-89
2021/08/15 05:11:24;;;;;;;;;15.00;13.75;;;;;19.80;54.90;101248.53;5019612;28;45302;-91
2021/08/15 05:13:49;;;;;;;;;9.50;9.50;;;;;19.82;54.92;101249.28;5000691;28;48387;-90
2021/08/15 05:16:16;;;;;;;;;10.75;10.50;;;;;19.82;55.35;101254.56;5000938;28;45326;-91
2021/08/15 05:18:41;;;;;;;;;11.50;11.00;;;;;19.81;54.95;101260.78;5001542;28;45699;-91
2021/08/15 05:21:07;;;;;;;;;14.50;12.25;;;;;19.80;55.08;101259.94;5001602;28;45260;-91
2021/08/15 05:23:33;;;;;;;;;15.00;11.00;;;;;19.76;55.23;101251.38;5000990;28;46138;-91
2021/08/15 05:25:58;;;;;;;;;12.75;12.75;;;;;19.80;55.34;101257.28;5001197;28;45406;-90
2021/08/15 05:28:24;;;;;;;;;11.75;10.50;;;;;19.78;56.08;101251.28;5021158;28;45306;-90
2021/08/15 05:30:49;;;;;;;;;12.00;11.25;;;;;19.81;55.67;101253.69;5021300;28;45432;-91
2021/08/15 05:33:14;;;;;;;;;12.75;12.25;;;;;19.79;55.49;101246.81;5038720;28;45614;-91
2021/08/15 05:35:40;;;;;;;;;11.00;9.75;;;;;19.80;55.57;101252.00;5020704;28;45370;-91
2021/08/15 05:38:05;;;;;;;;;12.00;11.00;;;;;19.82;55.85;101259.84;5017961;28;45550;-91
2021/08/15 05:40:31;;;;;;;;;8.75;8.75;;;;;19.84;55.72;101250.88;5038855;28;45304;-91
2021/08/15 05:42:56;;;;;;;;;8.25;7.25;;;;;19.83;55.75;101246.53;5020782;28;46925;-91
2021/08/15 05:45:22;;;;;;;;;11.25;11.00;;;;;19.87;56.17;101252.47;5038340;28;45344;-91
2021/08/15 05:47:47;;;;;;;;;16.50;11.75;;;;;19.90;55.73;101255.72;5034702;28;45392;-90
2021/08/15 05:50:13;;;;;;;;;14.25;12.75;;;;;19.90;55.91;101239.88;5019682;28;45210;-91
2021/08/15 05:52:38;;;;;;;;;10.75;8.75;;;;;19.92;55.85;101242.44;5017186;28;48342;-91
2021/08/15 05:55:05;;;;;;;;;13.00;11.50;;;;;19.98;56.17;101238.53;5001072;28;45374;-90
2021/08/15 05:57:32;;;;;;;;;14.00;11.00;;;;;19.97;56.48;101240.34;5018340;28;45274;-91
2021/08/15 05:59:57;;;;;;;;;11.75;9.75;;;;;19.99;56.14;101235.81;5000340;28;45561;-90
2021/08/15 06:02:22;;;;;;;;;13.50;10.50;;;;;20.05;55.91;101242.47;5017689;28;45582;-90
2021/08/15 06:04:48;;;;;;;;;12.50;11.00;;;;;20.11;55.93;101244.69;5000185;28;45812;-90
2021/08/15 06:07:14;;;;;;;;;10.00;10.00;;;;;20.12;56.08;101245.53;4999481;28;45349;-90
2021/08/15 06:09:39;;;;;;;;;10.00;10.00;;;;;20.20;55.79;101250.28;5025933;28;44843;-91
2021/08/15 06:12:05;;;;;;;;;10.50;10.00;;;;;20.24;55.68;101252.63;5009775;28;47208;-91
2021/08/15 06:14:31;;;;;;;;;7.00;7.00;;;;;20.31;56.12;101252.19;5000215;28;45404;-91
2021/08/15 06:16:56;;;;;;;;;8.00;8.00;;;;;20.33;55.98;101245.84;5000280;28;45508;-91
2021/08/15 06:19:21;;;;;;;;;10.00;9.00;;;;;20.40;56.25;101254.19;4999848;28;45353;-91
2021/08/15 06:21:47;;;;;;;;;8.00;8.00;;;;;20.46;56.10;101250.28;5017344;28;45597;-92
2021/08/15 06:24:12;;;;;;;;;10.00;8.00;;;;;20.51;55.81;101250.81;4999960;28;45485;-91
2021/08/15 06:26:38;;;;;;;;;12.75;9.00;;;;;20.53;55.72;101244.47;5018559;28;45041;-92
2021/08/15 06:29:03;;;;;;;;;9.00;9.00;;;;;20.59;55.89;101252.91;5000617;28;45429;-91
2021/08/15 06:31:28;;;;;;;;;8.33;8.33;;;;;20.66;55.88;101249.72;4999727;28;47023;-91
2021/08/15 06:33:54;;;;;;;;;7.67;6.67;;;;;20.71;55.74;101252.03;5017128;28;45239;-91
2021/08/15 06:36:22;;;;;;;;;9.25;7.00;;;;;20.77;55.80;101254.25;4999992;28;45479;-91
2021/08/15 06:38:48;;;;;;;;;8.00;8.00;;;;;20.81;55.76;101247.78;5000187;28;45569;-91
2021/08/15 06:41:13;;;;;;;;;10.25;9.75;;;;;20.86;55.08;101250.13;5017274;28;45444;-91
2021/08/15 06:43:39;;;;;;;;;8.00;8.00;;;;;20.96;55.36;101245.84;5017609;28;44702;-91
2021/08/15 06:46:05;;;;;;;;;9.00;9.00;;;;;20.98;54.78;101248.41;4999808;28;45474;-91
2021/08/15 06:48:30;;;;;;;;;8.25;8.00;;;;;21.05;54.71;101244.34;4999964;28;45446;-91
2021/08/15 06:50:58;;;;;;;;;8.33;7.00;;;;;21.09;55.10;101248.47;5015662;28;47250;-90
2021/08/15 06:53:25;;;;;;;;;7.33;7.33;;;;;21.20;54.54;101245.03;5005156;28;45614;-91
2021/08/15 06:55:50;;;;;;;;;7.75;7.25;;;;;21.23;54.83;101236.00;5014098;28;45473;-91
2021/08/15 06:58:17;;;;;;;;;6.00;6.00;;;;;21.30;54.74;101233.78;4999012;28;45378;-91
2021/08/15 07:00:43;;;;;;;;;8.67;7.00;;;;;21.38;54.71;101238.50;5017580;28;45581;-92
2021/08/15 07:03:09;;;;;;;;;7.00;6.50;;;;;21.42;54.54;101235.50;4998680;28;45523;-91
2021/08/15 07:05:35;;;;;;;;;8.67;8.67;;;;;21.48;53.93;101239.50;4999370;28;45698;-91
2021/08/15 07:08:00;;;;;;;;;7.67;7.67;;;;;21.51;54.24;101239.25;4998584;28;45306;-91
2021/08/15 07:10:27;;;;;;;;;4.33;3.67;;;;;21.61;53.95;101248.22;5016446;28;45377;-91
2021/08/15 07:12:55;;;;;;;;;8.67;8.33;;;;;21.65;53.67;101240.03;4999441;28;45333;-91
2021/08/15 07:15:22;;;;;;;;;12.75;8.50;;;;;21.66;53.83;101239.91;5017063;28;45347;-91
2021/08/15 07:17:47;;;;;;;;;7.25;7.00;;;;;21.72;53.78;101246.59;4987246;28;46170;-91
2021/08/15 07:20:14;;;;;;;;;8.67;8.33;;;;;21.81;53.62;101247.69;5001219;28;45346;-91
2021/08/15 07:22:39;;;;;;;;;8.33;7.33;;;;;21.85;53.66;101249.16;5016535;28;45414;-90
2021/08/15 07:25:05;;;;;;;;;6.00;6.00;;;;;21.91;53.79;101251.34;4998954;28;45346;-91
2021/08/15 07:27:33;;;;;;;;;9.75;8.25;;;;;21.95;53.54;101252.78;4999777;28;44847;-91
2021/08/15 07:29:58;;;;;;;;;10.00;9.00;;;;;22.00;53.76;101247.97;5014486;28;47387;-91
2021/08/15 07:32:24;;;;;;;;;11.33;9.00;;;;;22.09;53.48;101253.53;4998532;28;45577;-91
2021/08/15 07:34:49;;;;;;;;;9.00;8.00;;;;;22.18;53.35;101252.84;5017182;28;45816;-91
2021/08/15 07:37:14;;;;;;;;;10.67;9.33;;;;;22.25;53.14;101255.81;5016887;28;45588;-91
2021/08/15 07:39:40;;;;;;;;;8.00;8.00;;;;;22.29;52.96;101251.97;4998908;28;46941;-91
2021/08/15 07:42:06;;;;;;;;;6.67;6.67;;;;;22.35;53.22;101248.84;5016856;28;45201;-92
2021/08/15 07:44:32;;;;;;;;;8.00;6.67;;;;;22.40;52.68;101251.16;4994991;28;45472;-91
2021/08/15 07:46:57;;;;;;;;;7.67;7.67;;;;;22.49;52.79;101249.59;4979330;28;45290;-91
2021/08/15 07:49:22;;;;;;;;;6.33;5.67;;;;;22.57;52.58;101254.31;4991365;28;46917;-92
2021/08/15 07:51:48;;;;;;;;;7.33;7.00;;;;;22.62;52.68;101246.81;4998997;28;45497;-91
2021/08/15 07:54:13;;;;;;;;;6.33;6.33;;;;;22.71;52.59;101250.56;5015136;28;45467;-91
2021/08/15 07:56:39;;;;;;;;;9.67;7.33;;;;;22.79;52.70;101245.47;4995699;28;45393;-91
2021/08/15 07:59:04;;;;;;;;;9.00;7.67;;;;;22.82;52.20;101235.47;5012221;28;47771;-91
2021/08/15 08:01:29;;;;;;;;;9.00;8.00;;;;;22.94;52.35;101238.09;4995835;28;45479;-91
2021/08/15 08:03:55;;;;;;;;;9.00;8.00;;;;;23.02;52.44;101245.44;4998193;28;45397;-91
2021/08/15 08:06:20;;;;;;;;;8.00;7.00;;;;;23.11;52.05;101241.19;4998215;28;45555;-91
2021/08/15 08:08:47;;;;;;;;;10.50;8.50;;;;;23.19;52.14;101249.38;5016541;28;45243;-91
2021/08/15 08:11:13;;;;;;;;;7.50;6.25;;;;;23.25;52.16;101240.03;5016596;28;45359;-92
2021/08/15 08:13:38;;;;;;;;;11.00;8.00;;;;;23.36;51.49;101237.38;5016181;28;45219;-91
2021/08/15 08:16:04;;;;;;;;;7.75;7.75;;;;;23.43;51.24;101233.25;5016703;28;45476;-91
2021/08/15 08:18:29;;;;;;;;;8.33;8.33;;;;;23.54;51.12;101232.34;5014531;28;45468;-92
2021/08/15 08:20:55;;;;;;;;;11.25;8.75;;;;;23.62;51.43;101240.50;4987409;28;45204;-91
2021/08/15 08:23:20;;;;;;;;;8.75;7.50;;;;;23.68;51.70;101228.53;4997399;28;45790;-91
2021/08/15 08:25:47;;;;;;;;;7.67;6.33;;;;;23.78;50.95;101225.94;4998770;28;45307;-91
2021/08/15 08:28:13;;;;;;;;;8.33;8.33;;;;;23.93;50.93;101233.59;5015719;28;45452;-91
2021/08/15 08:30:39;;;;;;;;;8.00;7.67;;;;;23.99;50.77;101225.09;4998073;28;45407;-91
2021/08/15 08:33:05;;;;;;;;;7.67;6.33;;;;;24.10;50.64;101225.03;5001491;28;45521;-92
2021/08/15 08:35:31;;;;;;;;;7.33;6.33;;;;;24.19;50.42;101223.38;5018995;28;45415;-91
2021/08/15 08:37:56;;;;;;;;;7.33;7.33;;;;;24.26;49.70;101218.38;5001012;28;47101;-90
2021/08/15 08:40:22;;;;;;;;;11.00;8.00;;;;;24.35;49.78;101220.22;5019188;28;44869;-91
2021/08/15 08:42:48;;;;;;;;;7.33;7.33;;;;;24.42;49.96;101217.88;5001242;28;45486;-90
2021/08/15 08:45:19;;;;;;;;;8.67;7.00;;;;;24.51;49.37;101222.41;5001951;28;45548;-91
2021/08/15 08:47:47;;;;;;;;;7.67;7.67;;;;;24.61;49.50;101214.44;5019007;28;45566;-92
2021/08/15 08:50:13;;;;;;;;;9.33;7.33;;;;;24.71;49.30;101219.78;5001014;28;45609;-91
2021/08/15 08:52:40;;;;;;;;;7.67;7.67;;;;;24.79;48.90;101219.09;5001424;28;45331;-91
2021/08/15 08:55:06;;;;;;;;;7.67;5.67;;;;;24.88;48.31;101220.13;5024908;28;45438;-91
2021/08/15 08:57:32;;;;;;;;;7.00;7.00;;;;;24.97;48.54;101219.28;5001173;28;48209;-91
2021/08/15 08:59:59;;;;;;;;;9.33;6.33;;;;;25.04;48.40;101216.94;5001069;28;45515;-92
2021/08/15 09:02:25;;;;;;;;;10.00;8.00;;;;;25.15;48.43;101230.09;5018854;28;45314;-91
2021/08/15 09:04:51;;;;;;;;;7.67;7.67;;;;;25.25;47.93;101224.78;5019739;28;46583;-91
2021/08/15 09:07:18;;;;;;;;;7.67;5.67;;;;;25.35;47.75;101222.09;5017588;28;47181;-91
2021/08/15 09:09:53;;;;;;;;;9.00;8.00;;;;;25.41;47.95;101218.06;5000829;28;45316;-91
2021/08/15 09:12:20;;;;;;;;;7.00;7.00;;;;;25.54;47.73;101213.28;5018716;28;45375;-91
2021/08/15 09:14:45;;;;;;;;;11.33;10.00;;;;;25.65;47.43;101211.44;5018786;28;45250;-91
2021/08/15 09:17:11;;;;;;;;;7.00;7.00;;;;;25.73;47.00;101207.09;5005258;28;47159;-91
2021/08/15 09:19:41;;;;;;;;;8.67;7.33;;;;;25.88;47.34;101214.63;5018393;28;45519;-91
2021/08/15 09:22:20;;;;;;;;;10.00;9.00;;;;;26.00;46.57;101215.28;5001023;28;45378;-92
2021/08/15 09:25:00;;;;;;;;;10.67;9.00;;;;;26.09;46.29;101206.41;5001323;28;45307;-92
2021/08/15 09:27:26;;;;;;;;;12.00;12.00;;;;;26.26;46.35;101207.50;5004247;28;47239;-92
2021/08/15 09:30:10;;;;;;;;;10.00;9.33;;;;;26.39;46.59;101204.47;5000810;28;45382;-91
2021/08/15 09:32:45;;;;;;;;;9.33;7.33;;;;;26.50;46.25;101199.94;5001996;28;45385;-91
2021/08/15 09:35:15;;;;;;;;;9.33;8.33;;;;;26.60;45.76;101194.56;4999597;28;45299;-92
2021/08/15 09:37:41;;;;;;;;;10.00;10.00;;;;;26.72;45.88;101187.16;4999406;28;47349;-93
2021/08/15 09:40:26;;;;;;;;;10.33;7.33;;;;;26.83;45.36;101186.13;5023408;28;46552;-92
2021/08/15 09:42:52;;;;;;;;;9.67;9.67;;;;;26.91;45.97;101176.34;5037623;28;45245;-92
2021/08/15 09:45:31;;;;;;;;;9.67;8.67;;;;;27.04;45.97;101175.16;5038877;28;45458;-92
2021/08/15 09:47:57;;;;;;;;;10.00;9.33;;;;;27.15;45.12;101176.72;5038956;28;45571;-93
2021/08/15 09:50:23;;;;;;;;;10.00;9.33;;;;;27.29;45.90;101178.84;5034529;28;45404;-91
2021/08/15 09:52:49;;;;;;;;;11.25;9.75;;;;;27.44;45.19;101173.78;5038671;28;45360;-92
2021/08/15 09:55:16;;;;;;;;;12.75;12.25;;;;;27.58;45.20;101183.09;5035300;28;45417;-92
2021/08/15 09:57:42;;;;;;;;;11.25;11.25;;;;;27.68;44.65;101176.81;5018087;28;45460;-92
2021/08/15 10:00:20;;;;;;;;;12.25;11.00;;;;;27.81;44.28;101179.88;5000298;28;45997;-91
2021/08/15 10:02:47;;;;;;;;;12.00;12.00;;;;;27.88;44.08;101178.28;5012328;28;45465;-92
2021/08/15 10:05:12;;;;;;;;;11.50;10.25;;;;;27.97;44.43;101171.13;4999772;28;45500;-91
2021/08/15 10:07:39;;;;;;;;;14.50;12.50;;;;;28.09;44.32;101169.00;5016849;28;45380;-91
2021/08/15 10:10:05;;;;;;;;;14.25;13.00;;;;;28.23;44.24;101172.09;5016704;28;45301;-91
2021/08/15 10:12:32;;;;;;;;;11.75;10.50;;;;;28.35;44.23;101167.25;5017956;28;45416;-92
2021/08/15 10:14:58;;;;;;;;;12.75;11.00;;;;;28.51;43.87;101170.00;4999402;28;45428;-92
2021/08/15 10:17:29;;;;;;;;;12.00;11.75;;;;;28.65;43.21;101167.69;5012683;28;46790;-92
2021/08/15 10:20:00;;;;;;;;;11.00;11.00;;;;;28.77;42.86;101162.84;5014544;28;45525;-91
2021/08/15 10:22:31;;;;;;;;;13.50;13.50;;;;;28.85;43.01;101159.34;4999841;28;45420;-92
2021/08/15 10:25:04;;;;;;;;;15.75;12.00;;;;;28.98;43.06;101158.88;4998955;28;45556;-92
2021/08/15 10:27:41;;;;;;;;;11.75;11.75;;;;;29.13;42.85;101159.88;5022536;28;47952;-92
2021/08/15 10:30:27;;;;;;;;;13.00;11.25;;;;;29.28;42.82;101165.38;4999998;28;45322;-92
2021/08/15 10:32:55;;;;;;;;;12.00;12.00;;;;;29.44;41.99;101152.97;4981686;28;45783;-93
2021/08/15 10:35:23;;;;;;;;;13.25;12.50;;;;;29.57;42.81;101145.25;4997596;28;45365;-92
2021/08/15 10:38:05;;;;;;;;;13.00;13.00;;;;;29.78;42.08;101138.50;4996792;28;46999;-93
2021/08/15 10:40:43;;;;;;;;;14.75;13.50;;;;;29.98;41.60;101138.94;4997220;28;45520;-91
2021/08/15 10:43:22;;;;;;;;;12.25;10.75;;;;;30.17;41.06;101128.78;4978819;28;45514;-91
2021/08/15 10:46:17;;;;;;;;;15.00;12.50;;;;;30.47;41.59;101122.75;5015570;28;45354;-92
2021/08/15 10:49:08;;;;;;;;;11.75;11.75;;;;;30.74;41.01;101121.44;4999722;28;47845;-92
2021/08/15 10:51:51;;;;;;;;;15.75;14.25;;;;;31.02;40.88;101120.00;4982660;28;45681;-91
2021/08/15 10:54:28;;;;;;;;;9.75;9.75;;;;;31.33;40.26;101113.69;5015366;28;44759;-90
2021/08/15 10:57:06;;;;;;;;;11.00;11.00;;;;;31.62;39.38;101119.25;4997546;28;44865;-90
2021/08/15 10:59:35;;;;;;;;;8.67;8.67;;;;;31.92;39.03;101113.88;5021168;28;46017;-90
2021/08/15 11:02:18;;;;;;;;;13.00;11.33;;;;;32.21;38.51;101102.19;5002221;28;45481;-90
2021/08/15 11:04:57;;;;;;;;;10.75;9.50;;;;;32.53;37.90;101101.91;5016731;28;45503;-90
2021/08/15 11:07:37;;;;;;;;;13.00;13.00;;;;;32.75;36.60;101105.44;5013169;28;45550;-90
2021/08/15 11:10:05;;;;;;;;;10.33;9.00;;;;;32.88;35.90;101096.63;4997574;28;47474;-90
2021/08/15 11:12:30;;;;;;;;;10.25;9.50;;;;;33.02;35.86;101100.28;5015130;28;45419;-90
2021/08/15 11:15:05;;;;;;;;;9.50;9.00;;;;;33.16;35.65;101101.19;5015201;28;45368;-90